createdAt,value
2023-08-25T00:00:48.101Z,99919.00
2023-08-25T00:03:16.145Z,99905.00
2023-08-25T00:05:44.040Z,99896.00
2023-08-25T00:08:11.764Z,99903.00
2023-08-25T00:10:39.574Z,99908.00
2023-08-25T00:13:07.220Z,99915.00
2023-08-25T00:15:35.081Z,99912.00
2023-08-25T00:18:03.497Z,99906.00
2023-08-25T00:20:32.489Z,99914.00
2023-08-25T00:23:00.212Z,99917.00
2023-08-25T00:25:27.993Z,99917.00
2023-08-25T00:27:56.029Z,99911.00
2023-08-25T00:30:23.952Z,99914.00
2023-08-25T00:32:51.680Z,99913.00
2023-08-25T00:35:19.478Z,99908.00
2023-08-25T00:37:47.204Z,99909.00
2023-08-25T00:40:15.084Z,99901.00
2023-08-25T00:42:42.938Z,99895.00
2023-08-25T00:45:11.365Z,99888.00
2023-08-25T00:47:39.321Z,99883.00
2023-08-25T00:50:09.476Z,99876.00
2023-08-25T00:52:38.061Z,99874.00
2023-08-25T00:55:07.852Z,99872.00
2023-08-25T00:57:36.025Z,99870.00
2023-08-25T01:00:05.936Z,99864.00
2023-08-25T01:02:33.686Z,99864.00
2023-08-25T01:05:01.348Z,99861.00
2023-08-25T01:07:29.296Z,99853.00
2023-08-25T01:09:57.491Z,99855.00
2023-08-25T01:12:30.354Z,99859.00
2023-08-25T01:15:24.288Z,99865.00
2023-08-25T01:18:17.182Z,99865.00
2023-08-25T01:20:47.917Z,99854.00
2023-08-25T01:23:48.610Z,99850.00
2023-08-25T01:26:17.894Z,99843.00
2023-08-25T01:28:52.581Z,99850.00
2023-08-25T01:31:21.089Z,99842.00
2023-08-25T01:33:49.853Z,99848.00
2023-08-25T01:36:35.206Z,99845.00
2023-08-25T01:39:05.611Z,99845.00
2023-08-25T01:41:48.259Z,99845.00
2023-08-25T01:44:18.456Z,99840.00
2023-08-25T01:46:50.109Z,99850.00
2023-08-25T01:49:18.371Z,99845.00
2023-08-25T01:51:46.812Z,99842.00
2023-08-25T01:54:17.383Z,99834.00
2023-08-25T01:56:45.275Z,99839.00
2023-08-25T01:59:12.856Z,99831.00
2023-08-25T02:01:40.581Z,99826.00
2023-08-25T02:04:08.367Z,99827.00
2023-08-25T02:06:37.624Z,99823.00
2023-08-25T02:09:06.041Z,99808.00
2023-08-25T02:11:33.781Z,99799.00
2023-08-25T02:14:01.417Z,99788.00
2023-08-25T02:16:29.536Z,99787.00
2023-08-25T02:18:57.258Z,99787.00
2023-08-25T02:21:24.914Z,99787.00
2023-08-25T02:23:52.793Z,99779.00
2023-08-25T02:26:20.525Z,99781.00
2023-08-25T02:28:48.176Z,99782.00
2023-08-25T02:31:25.087Z,99779.00
2023-08-25T02:33:53.234Z,99795.00
2023-08-25T02:36:21.582Z,99791.00
2023-08-25T02:38:49.243Z,99777.00
2023-08-25T02:41:16.983Z,99771.00
2023-08-25T02:43:44.732Z,99776.00
2023-08-25T02:46:12.843Z,99777.00
2023-08-25T02:48:40.533Z,99779.00
2023-08-25T02:51:08.338Z,99782.00
2023-08-25T02:53:36.243Z,99786.00
2023-08-25T02:56:05.349Z,99775.00
2023-08-25T02:58:32.924Z,99785.00
2023-08-25T03:01:00.893Z,99773.00
2023-08-25T03:03:30.673Z,99768.00
2023-08-25T03:06:01.860Z,99778.00
2023-08-25T03:08:29.661Z,99770.00
2023-08-25T03:10:57.269Z,99773.00
2023-08-25T03:13:27.644Z,99758.00
2023-08-25T03:15:55.934Z,99760.00
2023-08-25T03:18:23.922Z,99769.00
2023-08-25T03:20:53.242Z,99767.00
2023-08-25T03:23:21.314Z,99758.00
2023-08-25T03:25:49.083Z,99757.00
2023-08-25T03:28:16.786Z,99758.00
2023-08-25T03:30:44.612Z,99755.00
2023-08-25T03:33:14.915Z,99758.00
2023-08-25T03:35:42.890Z,99758.00
2023-08-25T03:38:10.846Z,99752.00
2023-08-25T03:40:38.831Z,99755.00
2023-08-25T03:43:06.656Z,99754.00
2023-08-25T03:45:36.137Z,99747.00
2023-08-25T03:48:04.120Z,99754.00
2023-08-25T03:50:32.139Z,99747.00
2023-08-25T03:52:59.965Z,99752.00
2023-08-25T03:55:27.636Z,99744.00
2023-08-25T03:57:55.763Z,99751.00
2023-08-25T04:00:23.663Z,99748.00
2023-08-25T04:03:17.436Z,99752.00
2023-08-25T04:05:45.781Z,99746.00
2023-08-25T04:08:13.832Z,99749.00
2023-08-25T04:10:44.927Z,99745.00
2023-08-25T04:13:12.672Z,99746.00
2023-08-25T04:15:40.639Z,99746.00
2023-08-25T04:18:08.554Z,99747.00
2023-08-25T04:20:36.593Z,99754.00
2023-08-25T04:23:04.527Z,99762.00
2023-08-25T04:25:32.438Z,99762.00
2023-08-25T04:28:03.137Z,99759.00
2023-08-25T04:30:31.024Z,99753.00
2023-08-25T04:32:58.861Z,99759.00
2023-08-25T04:35:26.771Z,99761.00
2023-08-25T04:37:57.193Z,99763.00
2023-08-25T04:40:24.853Z,99761.00
2023-08-25T04:42:52.754Z,99766.00
2023-08-25T04:45:20.397Z,99758.00
2023-08-25T04:47:48.066Z,99763.00
2023-08-25T04:50:15.726Z,99765.00
2023-08-25T04:52:43.378Z,99772.00
2023-08-25T04:55:11.578Z,99772.00
2023-08-25T04:57:40.577Z,99768.00
2023-08-25T05:00:11.291Z,99775.00
2023-08-25T05:02:39.055Z,99775.00
2023-08-25T05:05:08.653Z,99778.00
2023-08-25T05:07:36.498Z,99775.00
2023-08-25T05:10:04.504Z,99776.00
2023-08-25T05:12:32.554Z,99770.00
2023-08-25T05:15:00.372Z,99769.00
2023-08-25T05:17:28.183Z,99766.00
2023-08-25T05:19:56.008Z,99760.00
2023-08-25T05:22:23.660Z,99755.00
2023-08-25T05:24:52.859Z,99760.00
2023-08-25T05:27:20.565Z,99753.00
2023-08-25T05:29:48.453Z,99751.00
2023-08-25T05:32:16.129Z,99749.00
2023-08-25T05:34:44.176Z,99755.00
2023-08-25T05:37:13.851Z,99756.00
2023-08-25T05:39:41.509Z,99753.00
2023-08-25T05:42:09.564Z,99766.00
2023-08-25T05:44:37.476Z,99758.00
2023-08-25T05:47:05.317Z,99757.00
2023-08-25T05:49:33.654Z,99765.00
2023-08-25T05:52:01.439Z,99763.00
2023-08-25T05:54:29.501Z,99771.00
2023-08-25T05:56:57.666Z,99782.00
2023-08-25T05:59:26.480Z,99783.00
2023-08-25T06:01:54.965Z,99779.00
2023-08-25T06:04:22.805Z,99788.00
2023-08-25T06:06:50.291Z,99788.00
2023-08-25T06:09:19.422Z,99788.00
2023-08-25T06:11:47.346Z,99788.00
2023-08-25T06:14:15.041Z,99799.00
2023-08-25T06:16:45.893Z,99798.00
2023-08-25T06:19:15.745Z,99793.00
2023-08-25T06:21:45.466Z,99788.00
2023-08-25T06:24:13.401Z,99801.00
2023-08-25T06:26:41.308Z,99795.00
2023-08-25T06:29:09.408Z,99788.00
2023-08-25T06:31:37.590Z,99795.00
2023-08-25T06:34:05.461Z,99797.00
2023-08-25T06:36:34.099Z,99793.00
2023-08-25T06:39:02.140Z,99797.00
2023-08-25T06:41:29.751Z,99796.00
2023-08-25T06:43:59.096Z,99789.00
2023-08-25T06:46:26.900Z,99774.00
2023-08-25T06:48:55.391Z,99765.00
2023-08-25T06:51:23.107Z,99762.00
2023-08-25T06:53:50.798Z,99766.00
2023-08-25T06:56:18.486Z,99780.00
2023-08-25T06:58:46.207Z,99776.00
2023-08-25T07:01:14.105Z,99773.00
2023-08-25T07:03:41.880Z,99771.00
2023-08-25T07:06:09.543Z,99776.00
2023-08-25T07:08:38.096Z,99777.00
2023-08-25T07:11:05.911Z,99778.00
2023-08-25T07:13:34.236Z,99779.00
2023-08-25T07:16:02.034Z,99774.00
2023-08-25T07:18:29.669Z,99765.00
2023-08-25T07:20:57.507Z,99758.00
2023-08-25T07:23:25.670Z,99741.00
2023-08-25T07:25:54.138Z,99742.00
2023-08-25T07:28:21.772Z,99744.00
2023-08-25T07:30:49.512Z,99747.00
2023-08-25T07:33:17.301Z,99742.00
2023-08-25T07:35:45.179Z,99744.00
2023-08-25T07:38:13.251Z,99759.00
2023-08-25T07:40:41.052Z,99759.00
2023-08-25T07:43:09.625Z,99750.00
2023-08-25T07:45:38.199Z,99767.00
2023-08-25T07:48:06.654Z,99774.00
2023-08-25T07:50:34.527Z,99772.00
2023-08-25T07:53:02.662Z,99778.00
2023-08-25T07:55:30.353Z,99786.00
2023-08-25T07:57:59.391Z,99792.00
2023-08-25T08:00:29.046Z,99804.00
2023-08-25T08:02:56.938Z,99799.00
2023-08-25T08:05:25.679Z,99794.00
2023-08-25T08:07:53.850Z,99808.00
2023-08-25T08:10:21.989Z,99804.00
2023-08-25T08:12:49.739Z,99804.00
2023-08-25T08:15:17.461Z,99795.00
2023-08-25T08:17:45.408Z,99801.00
2023-08-25T08:20:16.118Z,99807.00
2023-08-25T08:22:43.818Z,99807.00
2023-08-25T08:25:12.949Z,99819.00
2023-08-25T08:27:42.239Z,99813.00
2023-08-25T08:30:11.543Z,99829.00
2023-08-25T08:32:40.078Z,99826.00
2023-08-25T08:35:09.404Z,99823.00
2023-08-25T08:37:38.275Z,99820.00
2023-08-25T08:40:07.126Z,99829.00
2023-08-25T08:42:35.621Z,99831.00
2023-08-25T08:45:11.861Z,99829.00
2023-08-25T08:47:40.765Z,99837.00
2023-08-25T08:50:09.529Z,99836.00
2023-08-25T08:52:37.581Z,99834.00
2023-08-25T08:55:10.652Z,99823.00
2023-08-25T08:57:38.646Z,99818.00
2023-08-25T09:00:11.734Z,99806.00
2023-08-25T09:02:40.745Z,99807.00
2023-08-25T09:05:09.032Z,99811.00
2023-08-25T09:07:38.651Z,99813.00
2023-08-25T09:10:07.067Z,99821.00
2023-08-25T09:12:36.270Z,99831.00
2023-08-25T09:15:05.066Z,99832.00
2023-08-25T09:17:34.471Z,99849.00
2023-08-25T09:20:06.459Z,99854.00
2023-08-25T09:22:36.511Z,99852.00
2023-08-25T09:25:04.516Z,99857.00
2023-08-25T09:27:33.237Z,99866.00
2023-08-25T09:30:05.750Z,99880.00
2023-08-25T09:32:34.468Z,99871.00
2023-08-25T09:35:13.472Z,99876.00
2023-08-25T09:37:42.636Z,99868.00
2023-08-25T09:40:14.465Z,99880.00
2023-08-25T09:42:42.372Z,99889.00
2023-08-25T09:45:13.903Z,99883.00
2023-08-25T09:47:45.074Z,99878.00
2023-08-25T09:50:19.824Z,99885.00
2023-08-25T09:52:50.043Z,99888.00
2023-08-25T09:55:18.596Z,99877.00
2023-08-25T09:57:47.879Z,99881.00
2023-08-25T10:00:16.216Z,99871.00
2023-08-25T10:02:45.002Z,99873.00
2023-08-25T10:05:14.280Z,99866.00
2023-08-25T10:07:42.989Z,99860.00
2023-08-25T10:10:11.069Z,99855.00
2023-08-25T10:12:40.167Z,99853.00
2023-08-25T10:15:10.889Z,99869.00
2023-08-25T10:17:39.117Z,99867.00
2023-08-25T10:20:10.738Z,99870.00
2023-08-25T10:22:38.980Z,99869.00
2023-08-25T10:25:07.068Z,99876.00
2023-08-25T10:27:35.037Z,99877.00
2023-08-25T10:30:04.851Z,99874.00
2023-08-25T10:32:52.366Z,99882.00
2023-08-25T10:35:42.699Z,99893.00
2023-08-25T10:38:24.181Z,99909.00
2023-08-25T10:40:56.520Z,99925.00
2023-08-25T10:43:32.258Z,99914.00
2023-08-25T10:46:11.262Z,99883.00
2023-08-25T10:48:40.382Z,99868.00
2023-08-25T10:51:12.705Z,99859.00
2023-08-25T10:53:53.473Z,99855.00
2023-08-25T10:56:23.970Z,99865.00
2023-08-25T10:59:03.741Z,99869.00
2023-08-25T11:01:43.870Z,99863.00
2023-08-25T11:04:21.878Z,99864.00
2023-08-25T11:06:51.068Z,99881.00
2023-08-25T11:09:27.963Z,99901.00
2023-08-25T11:12:08.089Z,99926.00
2023-08-25T11:14:37.057Z,99936.00
2023-08-25T11:17:06.534Z,99930.00
2023-08-25T11:19:36.924Z,99933.00
2023-08-25T11:22:07.234Z,99947.00
2023-08-25T11:24:35.281Z,99937.00
2023-08-25T11:27:07.492Z,99914.00
2023-08-25T11:29:36.025Z,99907.00
2023-08-25T11:32:04.410Z,99906.00
2023-08-25T11:34:35.207Z,99910.00
2023-08-25T11:37:03.009Z,99910.00
2023-08-25T11:39:30.766Z,99920.00
2023-08-25T11:41:59.902Z,99920.00
2023-08-25T11:44:28.046Z,99911.00
2023-08-25T11:46:59.028Z,99924.00
2023-08-25T11:49:29.892Z,99919.00
2023-08-25T11:51:58.139Z,99909.00
2023-08-25T11:54:26.230Z,99913.00
2023-08-25T11:56:55.726Z,99922.00
2023-08-25T11:59:26.776Z,99946.00
2023-08-25T12:02:02.730Z,99942.00
2023-08-25T12:04:31.086Z,99951.00
2023-08-25T12:06:59.099Z,99956.00
2023-08-25T12:09:27.474Z,99950.00
2023-08-25T12:11:58.659Z,99968.00
2023-08-25T12:14:33.285Z,99980.00
2023-08-25T12:17:25.296Z,99996.00
2023-08-25T12:19:53.318Z,99984.00
2023-08-25T12:22:21.223Z,99968.00
2023-08-25T12:24:49.526Z,99960.00
2023-08-25T12:27:23.517Z,99948.00
2023-08-25T12:29:51.801Z,99939.00
2023-08-25T12:32:19.562Z,99944.00
2023-08-25T12:34:47.969Z,99956.00
2023-08-25T12:37:16.158Z,99958.00
2023-08-25T12:39:43.895Z,99927.00
2023-08-25T12:42:11.641Z,99905.00
2023-08-25T12:44:39.585Z,99903.00
2023-08-25T12:47:07.448Z,99902.00
2023-08-25T12:49:35.579Z,99894.00
2023-08-25T12:52:03.426Z,99915.00
2023-08-25T12:54:31.169Z,99912.00
2023-08-25T12:56:58.920Z,99888.00
2023-08-25T12:59:26.601Z,99872.00
2023-08-25T13:01:54.431Z,99853.00
2023-08-25T13:04:22.367Z,99820.00
2023-08-25T13:06:50.163Z,99838.00
2023-08-25T13:09:18.090Z,99843.00
2023-08-25T13:11:45.912Z,99859.00
2023-08-25T13:14:13.866Z,99843.00
2023-08-25T13:16:41.768Z,99825.00
2023-08-25T13:19:10.283Z,99823.00
2023-08-25T13:21:38.337Z,99826.00
2023-08-25T13:24:09.806Z,99833.00
2023-08-25T13:26:38.005Z,99828.00
2023-08-25T13:29:06.003Z,99826.00
2023-08-25T13:31:33.788Z,99826.00
2023-08-25T13:34:01.834Z,99838.00
2023-08-25T13:36:30.027Z,99836.00
2023-08-25T13:38:59.828Z,99839.00
2023-08-25T13:41:30.084Z,99835.00
2023-08-25T13:43:58.066Z,99852.00
2023-08-25T13:46:25.859Z,99861.00
2023-08-25T13:48:54.016Z,99852.00
2023-08-25T13:51:21.871Z,99862.00
2023-08-25T13:53:49.952Z,99863.00
2023-08-25T13:56:18.399Z,99846.00
2023-08-25T13:58:46.903Z,99838.00
2023-08-25T14:01:16.705Z,99840.00
2023-08-25T14:03:44.921Z,99846.00
2023-08-25T14:06:13.094Z,99858.00
2023-08-25T14:08:41.211Z,99855.00
2023-08-25T14:11:11.733Z,99860.00
2023-08-25T14:13:39.532Z,99873.00
2023-08-25T14:16:07.441Z,99871.00
2023-08-25T14:18:35.315Z,99862.00
2023-08-25T14:21:03.427Z,99845.00
2023-08-25T14:23:31.488Z,99839.00
2023-08-25T14:25:59.585Z,99826.00
2023-08-25T14:28:27.772Z,99822.00
2023-08-25T14:30:55.452Z,99809.00
2023-08-25T14:33:23.469Z,99826.00
2023-08-25T14:35:51.236Z,99826.00
2023-08-25T14:38:19.121Z,99842.00
2023-08-25T14:40:47.805Z,99860.00
2023-08-25T14:43:15.461Z,99869.00
2023-08-25T14:45:43.308Z,99869.00
2023-08-25T14:48:11.096Z,99864.00
2023-08-25T14:50:38.955Z,99854.00
2023-08-25T14:53:08.905Z,99853.00
2023-08-25T14:55:38.608Z,99838.00
2023-08-25T14:58:06.453Z,99824.00
2023-08-25T15:00:34.260Z,99822.00
2023-08-25T15:03:02.300Z,99813.00
2023-08-25T15:05:30.727Z,99797.00
2023-08-25T15:07:59.685Z,99763.00
2023-08-25T15:10:27.528Z,99738.00
2023-08-25T15:12:55.318Z,99760.00
2023-08-25T15:15:23.585Z,99764.00
2023-08-25T15:17:51.569Z,99759.00
2023-08-25T15:20:19.530Z,99757.00
2023-08-25T15:22:47.345Z,99746.00
2023-08-25T15:25:14.986Z,99719.00
2023-08-25T15:27:42.888Z,99718.00
2023-08-25T15:30:11.275Z,99679.00
2023-08-25T15:32:39.276Z,99638.00
2023-08-25T15:35:07.435Z,99645.00
2023-08-25T15:37:35.351Z,99664.00
2023-08-25T15:40:04.142Z,99624.00
2023-08-25T15:42:32.155Z,99596.00
2023-08-25T15:44:59.890Z,99541.00
2023-08-25T15:47:27.791Z,99527.00
2023-08-25T15:49:55.577Z,99527.00
2023-08-25T15:52:26.823Z,99550.00
2023-08-25T15:54:54.457Z,99534.00
2023-08-25T15:57:30.392Z,99533.00
2023-08-25T16:00:09.800Z,99542.00
2023-08-25T16:02:37.769Z,99552.00
2023-08-25T16:05:05.881Z,99574.00
2023-08-25T16:07:33.762Z,99598.00
2023-08-25T16:10:01.409Z,99632.00
2023-08-25T16:12:29.016Z,99644.00
2023-08-25T16:14:56.862Z,99643.00
2023-08-25T16:17:24.496Z,99649.00
2023-08-25T16:19:52.232Z,99665.00
2023-08-25T16:22:20.196Z,99653.00
2023-08-25T16:24:47.867Z,99657.00
2023-08-25T16:27:15.664Z,99668.00
2023-08-25T16:29:46.496Z,99667.00
2023-08-25T16:32:14.100Z,99666.00
2023-08-25T16:34:41.960Z,99668.00
2023-08-25T16:37:10.082Z,99667.00
2023-08-25T16:39:38.057Z,99653.00
2023-08-25T16:42:06.129Z,99648.00
2023-08-25T16:44:33.884Z,99643.00
2023-08-25T16:47:01.623Z,99641.00
2023-08-25T16:49:29.747Z,99640.00
2023-08-25T16:51:57.390Z,99645.00
2023-08-25T16:54:25.275Z,99645.00
2023-08-25T16:56:53.044Z,99638.00
2023-08-25T16:59:20.776Z,99640.00
2023-08-25T17:01:48.545Z,99636.00
2023-08-25T17:04:16.549Z,99636.00
2023-08-25T17:06:44.377Z,99633.00
2023-08-25T17:09:12.105Z,99633.00
2023-08-25T17:11:39.811Z,99630.00
2023-08-25T17:14:07.934Z,99630.00
2023-08-25T17:16:35.753Z,99634.00
2023-08-25T17:19:04.627Z,99640.00
2023-08-25T17:21:32.376Z,99650.00
2023-08-25T17:24:00.154Z,99652.00
2023-08-25T17:26:28.298Z,99656.00
2023-08-25T17:28:56.458Z,99658.00
2023-08-25T17:31:24.652Z,99663.00
2023-08-25T17:33:55.100Z,99663.00
2023-08-25T17:36:25.279Z,99668.00
2023-08-25T17:38:53.093Z,99666.00
2023-08-25T17:41:21.066Z,99666.00
2023-08-25T17:43:49.184Z,99663.00
2023-08-25T17:46:16.925Z,99675.00
2023-08-25T17:48:44.811Z,99681.00
2023-08-25T17:51:12.578Z,99679.00
2023-08-25T17:53:40.214Z,99682.00
2023-08-25T17:56:07.931Z,99681.00
2023-08-25T17:58:35.703Z,99693.00
2023-08-25T18:01:07.915Z,99694.00
2023-08-25T18:03:40.053Z,99693.00
2023-08-25T18:06:08.289Z,99692.00
2023-08-25T18:08:39.106Z,99688.00
2023-08-25T18:11:06.939Z,99683.00
2023-08-25T18:13:36.409Z,99682.00
2023-08-25T18:16:07.362Z,99696.00
2023-08-25T18:18:35.122Z,99705.00
2023-08-25T18:21:03.903Z,99717.00
2023-08-25T18:23:32.498Z,99714.00
2023-08-25T18:26:01.971Z,99725.00
2023-08-25T18:28:29.897Z,99719.00
2023-08-25T18:31:01.681Z,99732.00
2023-08-25T18:33:31.070Z,99725.00
2023-08-25T18:35:58.765Z,99715.00
2023-08-25T18:38:27.703Z,99731.00
2023-08-25T18:40:55.585Z,99736.00
2023-08-25T18:43:23.664Z,99742.00
2023-08-25T18:45:56.962Z,99745.00
2023-08-25T18:48:25.047Z,99737.00
2023-08-25T18:50:52.872Z,99742.00
2023-08-25T18:53:20.565Z,99735.00
2023-08-25T18:55:50.515Z,99729.00
2023-08-25T18:58:18.334Z,99727.00
2023-08-25T19:00:47.443Z,99726.00
2023-08-25T19:03:18.499Z,99724.00
2023-08-25T19:05:46.304Z,99733.00
2023-08-25T19:08:14.477Z,99743.00
2023-08-25T19:10:42.501Z,99751.00
2023-08-25T19:13:13.529Z,99751.00
2023-08-25T19:15:41.230Z,99743.00
2023-08-25T19:18:09.967Z,99742.00
2023-08-25T19:20:39.216Z,99751.00
2023-08-25T19:23:07.086Z,99747.00
2023-08-25T19:25:35.304Z,99735.00
2023-08-25T19:28:03.050Z,99728.00
2023-08-25T19:30:31.109Z,99731.00
2023-08-25T19:32:59.032Z,99740.00
2023-08-25T19:35:27.932Z,99739.00
2023-08-25T19:37:55.987Z,99734.00
2023-08-25T19:40:24.178Z,99733.00
2023-08-25T19:42:52.119Z,99725.00
2023-08-25T19:45:19.880Z,99727.00
2023-08-25T19:47:47.778Z,99726.00
2023-08-25T19:50:15.492Z,99714.00
2023-08-25T19:52:43.684Z,99731.00
2023-08-25T19:55:11.625Z,99740.00
2023-08-25T19:57:41.166Z,99734.00
2023-08-25T20:00:10.226Z,99742.00
2023-08-25T20:02:38.195Z,99749.00
2023-08-25T20:05:09.707Z,99763.00
2023-08-25T20:07:37.615Z,99759.00
2023-08-25T20:10:07.060Z,99752.00
2023-08-25T20:12:38.297Z,99755.00
2023-08-25T20:15:06.555Z,99742.00
2023-08-25T20:17:35.276Z,99746.00
2023-08-25T20:20:05.171Z,99735.00
2023-08-25T20:22:32.901Z,99722.00
2023-08-25T20:25:01.692Z,99727.00
2023-08-25T20:27:33.203Z,99718.00
2023-08-25T20:30:00.816Z,99725.00
2023-08-25T20:32:28.440Z,99719.00
2023-08-25T20:34:56.317Z,99711.00
2023-08-25T20:37:24.160Z,99707.00
2023-08-25T20:39:52.413Z,99712.00
2023-08-25T20:42:20.297Z,99711.00
2023-08-25T20:44:48.585Z,99719.00
2023-08-25T20:47:16.400Z,99730.00
2023-08-25T20:49:44.084Z,99725.00
2023-08-25T20:52:13.606Z,99738.00
2023-08-25T20:54:41.610Z,99734.00
2023-08-25T20:57:09.352Z,99739.00
2023-08-25T20:59:37.228Z,99728.00
2023-08-25T21:02:05.319Z,99729.00
2023-08-25T21:04:33.085Z,99741.00
2023-08-25T21:07:00.895Z,99740.00
2023-08-25T21:09:30.633Z,99733.00
2023-08-25T21:11:58.917Z,99738.00
2023-08-25T21:14:27.502Z,99735.00
2023-08-25T21:16:55.408Z,99738.00
2023-08-25T21:19:23.085Z,99741.00
2023-08-25T21:21:50.853Z,99748.00
2023-08-25T21:24:18.635Z,99742.00
2023-08-25T21:26:46.460Z,99733.00
2023-08-25T21:29:16.583Z,99735.00
2023-08-25T21:31:44.590Z,99734.00
2023-08-25T21:34:13.651Z,99728.00
2023-08-25T21:36:41.288Z,99727.00
2023-08-25T21:39:09.501Z,99730.00
2023-08-25T21:41:37.075Z,99728.00
2023-08-25T21:44:05.140Z,99724.00
2023-08-25T21:46:37.458Z,99717.00
2023-08-25T21:49:05.968Z,99715.00
2023-08-25T21:51:33.766Z,99707.00
2023-08-25T21:54:05.941Z,99713.00
2023-08-25T21:56:35.557Z,99713.00
2023-08-25T21:59:03.502Z,99704.00
2023-08-25T22:01:31.258Z,99695.00
2023-08-25T22:03:59.107Z,99703.00
2023-08-25T22:06:27.452Z,99707.00
2023-08-25T22:08:55.066Z,99692.00
2023-08-25T22:11:23.430Z,99697.00
2023-08-25T22:13:51.693Z,99696.00
2023-08-25T22:16:22.356Z,99703.00
2023-08-25T22:18:50.177Z,99706.00
2023-08-25T22:21:18.271Z,99701.00
2023-08-25T22:23:46.558Z,99711.00
2023-08-25T22:26:14.295Z,99717.00
2023-08-25T22:28:41.967Z,99714.00
2023-08-25T22:31:09.735Z,99719.00
2023-08-25T22:36:08.683Z,99689.00
2023-08-25T22:38:36.466Z,99699.00
2023-08-25T22:41:05.784Z,99708.00
2023-08-25T22:43:33.624Z,99718.00
2023-08-25T22:46:07.876Z,99725.00
2023-08-25T22:48:35.889Z,99731.00
2023-08-25T22:51:04.476Z,99725.00
2023-08-25T22:53:32.279Z,99720.00
2023-08-25T22:56:00.143Z,99719.00
2023-08-25T22:58:27.940Z,99725.00
2023-08-25T23:00:55.661Z,99724.00
2023-08-25T23:03:23.409Z,99717.00
2023-08-25T23:05:51.942Z,99717.00
2023-08-25T23:08:19.920Z,99712.00
2023-08-25T23:10:47.778Z,99713.00
2023-08-25T23:13:15.945Z,99709.00
2023-08-25T23:15:46.808Z,99704.00
2023-08-25T23:18:14.673Z,99718.00
2023-08-25T23:20:42.462Z,99723.00
2023-08-25T23:23:10.216Z,99727.00
2023-08-25T23:25:38.192Z,99729.00
2023-08-25T23:28:07.317Z,99726.00
2023-08-25T23:30:35.484Z,99728.00
2023-08-25T23:33:03.897Z,99716.00
2023-08-25T23:35:35.810Z,99711.00
2023-08-25T23:38:06.480Z,99713.00
2023-08-25T23:40:35.589Z,99715.00
2023-08-25T23:43:04.270Z,99718.00
2023-08-25T23:45:32.295Z,99724.00
2023-08-25T23:48:01.067Z,99717.00
2023-08-25T23:50:28.938Z,99722.00
2023-08-25T23:52:56.656Z,99732.00
2023-08-25T23:55:24.283Z,99729.00
2023-08-25T23:57:52.138Z,99721.00
